Latest Coastal Weather Observations for Wyndham Airport

IDD60701

Issued at 1:15 am CST Sunday 23 November 2014 (issued every 10 minutes, with the page automatically refreshed every 10 minutes)

About coastal observations | Map of coastal stations | Coastal observations for NT | Marine services | Other Formats
Station Details ID: 001006 Name: WYNDHAM AERO Lat: -15.51 Lon: 128.15 Height: 3.8 m
Data from the previous 72 hours. | See also: Recent months for locations in Northern Territory
Date/Time
CST
Temp

°C
Wind Pressure Rain
since 9am
mm
Weather Cloud Vis
km
Sea
Height
m
Swell
Dir
 
Speed
knots
Gust
knots
hPa Trend Height
m
Period
s
Dir
23/01:00am 27.9 W 3 4 1010.2 - 2.6 - - - - - - -
23/12:30am 28.2 W 6 6 1010.0 - 2.6 - - - - - - -
23/12:00am 28.6 S 11 13 1010.7 - 2.6 - - - - - - -
 
Date/Time
CST
Temp

°C
Wind Pressure Rain
since 9am
mm
Weather Cloud Vis
km
Sea
Height
m
Swell
Dir
 
Speed
knots
Gust
knots
hPa Trend Height
m
Period
s
Dir
22/11:30pm 28.5 SW 9 12 1011.0 - 2.6 - - - - - - -
22/11:00pm 28.7 SSW 9 11 1011.2 - 2.6 - - - - - - -
22/10:30pm 28.4 SSW 14 19 1011.3 - 2.6 - - - - - - -
22/10:00pm 29.1 S 13 18 1011.2 - 2.6 - - - - - - -
22/09:30pm 29.6 S 16 22 1011.4 - 2.6 - - - - - - -
22/09:19pm 29.5 SW 16 25 1011.0 - 2.6 - - - - - - -
22/09:00pm 31.6 NNE 9 13 1009.9 - 2.6 - - - - - - -
22/08:30pm 31.6 N 15 22 1008.9 - 2.6 - - - - - - -
22/08:00pm 31.8 NNE 16 22 1008.2 - 2.6 - - - - - - -
22/07:30pm 32.4 NNE 17 22 1007.7 - 2.6 - - - - - - -
22/07:00pm 32.5 N 16 21 1006.5 - 2.6 - - - - - - -
22/06:30pm 33.4 N 10 17 1006.1 - 2.6 - - - - - - -
22/06:00pm 34.4 ESE 5 9 1006.0 - 2.6 - - - - - - -
22/05:30pm 33.8 W 3 6 1005.4 - 2.6 - - - - - - -
22/05:00pm 31.6 SE 4 9 1005.2 - 2.6 - - - - - - -
22/04:30pm 28.2 N 13 22 1006.0 - 2.4 Rain - - - - - -
22/04:23pm 29.6 N 15 22 1006.2 - 1.6 - - - - - - -
22/04:10pm 30.6 NNW 21 31 1005.9 - 1.4 - - - - - - -
22/04:06pm 28.1 N 23 31 1006.2 - 1.4 - - - - - - -
22/04:00pm 25.6 N 39 52 1005.8 - 0.6 - - - - - - -
22/03:59pm 27.1 N 37 47 1005.7 - 0.4 - - - - - - -
22/03:57pm 28.7 N 24 37 1005.6 - 0.2 - - - - - - -
22/03:47pm 34.6 N 23 33 1005.4 - 0.0 - - - - - - -
22/03:41pm 35.9 N 23 29 1005.2 - 0.0 - - - - - - -
22/03:30pm 41.2 E 6 11 1005.2 - 0.0 - - - - - - -
22/03:00pm 41.7 NE 5 11 1005.9 - 0.0 - - - - - - -
22/02:30pm 40.9 NNW 7 16 1006.7 - 0.0 - - - - - - -
22/02:00pm 41.1 E 6 11 1007.2 - 0.0 - - - - - - -
22/01:30pm 39.8 E 7 13 1007.9 - 0.0 - - - - - - -
22/01:00pm 40.3 ESE 6 12 1008.3 - 0.0 - - - - - - -
22/12:30pm 38.7 ESE 7 12 1008.9 - 0.0 - - - - - - -
22/12:00pm 38.0 ENE 7 13 1009.5 - 0.0 - - - - - - -
22/11:30am 38.6 ENE 7 11 1009.8 - 0.0 - - - - - - -
22/11:00am 38.3 ESE 8 14 1010.4 - 0.0 - - - - - - -
22/10:30am 36.9 E 8 13 1010.6 - 0.0 - - - - - - -
22/10:00am 36.5 E 4 9 1010.7 - 0.0 - - - - - - -
22/09:30am 35.1 E 7 11 1010.7 - 0.0 - - - - - - -
22/09:00am 34.3 S 4 8 1010.8 - 0.0 - - - - - - -
22/08:30am 33.1 W 4 7 1010.6 - 0.0 - - - - - - -
22/08:00am 32.1 W 2 5 1010.3 - 0.0 - - - - - - -
22/07:30am 31.1 CALM 0 0 1010.2 - 0.0 - - - - - - -
22/07:00am 29.6 CALM 0 0 1009.8 - 0.0 - - - - - - -
22/06:30am 28.4 CALM 0 0 1009.4 - 0.0 - - - - - - -
22/06:00am 28.9 NNW 1 4 1009.1 - 0.0 - - - - - - -
22/05:30am 28.9 N 4 5 1008.7 - 0.0 - - - - - - -
22/05:00am 29.1 ENE 4 5 1008.7 - 0.0 - - - - - - -
22/04:30am 29.8 SSE 4 5 1008.6 - 0.0 - - - - - - -
22/04:00am 30.4 WSW 4 5 1008.4 - 0.0 - - - - - - -
22/03:30am 30.8 WNW 8 9 1007.7 - 0.0 - - - - - - -
22/03:00am 31.0 WNW 8 10 1007.8 - 0.0 - - - - - - -
22/02:30am 31.2 W 9 12 1008.0 - 0.0 - - - - - - -
22/02:00am 31.3 WNW 11 13 1008.2 - 0.0 - - - - - - -
22/01:30am 31.5 W 10 13 1008.6 - 0.0 - - - - - - -
22/01:00am 31.6 W 12 14 1008.8 - 0.0 - - - - - - -
22/12:30am 31.7 W 10 13 1009.2 - 0.0 - - - - - - -
22/12:00am 31.9 W 7 10 1009.3 - 0.0 - - - - - - -
 
Date/Time
CST
Temp

°C
Wind Pressure Rain
since 9am
mm
Weather Cloud Vis
km
Sea
Height
m
Swell
Dir
 
Speed
knots
Gust
knots
hPa Trend Height
m
Period
s
Dir
21/11:30pm 32.0 W 6 7 1009.3 - 0.0 - - - - - - -
21/11:00pm 32.0 NW 7 8 1009.2 - 0.0 - - - - - - -
21/10:30pm 32.2 NW 7 9 1009.2 - 0.0 - - - - - - -
21/10:00pm 32.8 NW 8 11 1009.2 - 0.0 - - - - - - -
21/09:30pm 33.1 WNW 5 6 1008.7 - 0.0 - - - - - - -
21/09:00pm 33.1 NNW 11 14 1008.2 - 0.0 - - - - - - -
21/08:30pm 32.9 NW 5 9 1007.7 - 0.0 - - - - - - -
21/08:00pm 33.1 N 12 19 1007.0 - 0.0 - - - - - - -
21/07:30pm 33.0 N 18 26 1006.4 - 0.0 - - - - - - -
21/07:00pm 33.7 N 19 25 1006.1 - 0.0 - - - - - - -
21/06:30pm 34.8 N 20 25 1006.0 - 0.0 - - - - - - -
21/06:00pm 36.1 N 19 24 1005.5 - 0.0 - - - - - - -
21/05:30pm 37.4 N 18 22 1005.3 - 0.0 - - - - - - -
21/05:00pm 39.3 N 13 18 1005.1 - 0.0 - - - - - - -
21/04:30pm 39.2 N 13 21 1005.4 - 0.0 - - - - - - -
21/04:00pm 40.8 N 15 22 1005.6 - 0.0 - - - - - - -
21/03:30pm 39.8 NNW 14 20 1005.7 - 0.0 - - - - - - -
21/03:00pm 41.2 N 12 20 1006.0 - 0.0 - - - - - - -
21/02:30pm 40.6 WNW 7 11 1006.4 - 0.0 - - - - - - -
21/02:00pm 39.9 ENE 5 8 1006.9 - 0.0 - - - - - - -
21/01:30pm 40.6 N 7 13 1007.4 - 0.0 - - - - - - -
21/01:00pm 39.2 N 6 11 1007.9 - 0.0 - - - - - - -
21/12:30pm 39.0 NNE 6 13 1008.4 - 0.0 - - - - - - -
21/12:00pm 39.1 S 5 9 1009.0 - 0.0 - - - - - - -
21/11:30am 38.6 ENE 6 10 1009.5 - 0.0 - - - - - - -
21/11:00am 36.8 N 5 11 1009.8 - 0.0 - - - - - - -
21/10:30am 36.7 N 4 8 1010.0 - 0.0 - - - - - - -
21/10:00am 36.2 E 3 5 1010.2 - 0.0 - - - - - - -
21/09:30am 35.1 NNW 5 7 1010.2 - 0.0 - - - - - - -
21/09:00am 33.6 WNW 4 7 1010.2 - 0.0 - - - - - - -
21/08:30am 32.9 W 2 5 1010.0 - 0.0 - - - - - - -
21/08:00am 32.1 S 3 5 1010.1 - 0.0 - - - - - - -
21/07:30am 31.3 SE 2 5 1009.7 - 0.0 - - - - - - -
21/07:00am 29.4 CALM 0 0 1009.2 - 0.0 - - - - - - -
21/06:30am 28.0 CALM 0 0 1008.9 - 0.0 - - - - - - -
21/06:00am 27.9 CALM 0 0 1008.5 - 0.0 - - - - - - -
21/05:30am 28.9 WSW 5 7 1008.1 - 0.0 - - - - - - -
21/05:00am 28.8 W 5 6 1008.1 - 0.0 - - - - - - -
21/04:30am 28.8 SW 4 6 1007.9 - 0.0 - - - - - - -
21/04:00am 29.1 SW 4 5 1007.8 - 0.0 - - - - - - -
21/03:30am 29.4 W 5 6 1007.7 - 0.0 - - - - - - -
21/03:00am 30.3 W 6 7 1007.7 - 0.0 - - - - - - -
21/02:30am 30.7 NW 6 7 1008.0 - 0.0 - - - - - - -
21/02:00am 31.0 NW 7 9 1008.4 - 0.0 - - - - - - -
21/01:30am 31.4 NW 9 11 1008.7 - 0.0 - - - - - - -
21/01:00am 31.6 W 6 9 1008.9 - 0.0 - - - - - - -
21/12:30am 31.4 WSW 6 8 1009.1 - 0.0 - - - - - - -
21/12:00am 31.0 SW 5 7 1009.4 - 0.0 - - - - - - -
 
Date/Time
CST
Temp

°C
Wind Pressure Rain
since 9am
mm
Weather Cloud Vis
km
Sea
Height
m
Swell
Dir
 
Speed
knots
Gust
knots
hPa Trend Height
m
Period
s
Dir
20/11:30pm 30.6 CALM 0 0 1009.3 - 0.0 - - - - - - -
20/11:00pm 30.6 N 2 3 1009.2 - 0.0 - - - - - - -
20/10:30pm 31.1 N 2 3 1008.9 - 0.0 - - - - - - -
20/10:00pm 31.6 CALM 0 3 1008.7 - 0.0 - - - - - - -
20/09:30pm 31.9 N 4 8 1008.4 - 0.0 - - - - - - -
20/09:00pm 31.9 N 5 9 1008.0 - 0.0 - - - - - - -
20/08:30pm 31.7 NNW 11 21 1007.8 - 0.0 - - - - - - -
20/08:00pm 32.1 N 18 24 1006.6 - 0.0 - - - - - - -
20/07:30pm 32.1 N 19 24 1006.1 - 0.0 - - - - - - -
20/07:00pm 32.6 N 18 24 1005.9 - 0.0 - - - - - - -
20/06:30pm 33.3 N 18 24 1005.8 - 0.0 - - - - - - -
20/06:00pm 34.3 N 17 23 1005.3 - 0.0 - - - - - - -
20/05:30pm 36.1 N 18 24 1004.8 - 0.0 - - - - - - -
20/05:00pm 38.0 N 15 19 1004.7 - 0.0 - - - - - - -
20/04:32pm 40.7 NE 19 27 1004.6 - 0.0 - - - - - - -
20/04:30pm 42.0 ENE 9 14 1004.8 - 0.0 - - - - - - -
20/04:00pm 41.5 SE 7 14 1005.3 - 0.0 - - - - - - -
20/03:30pm 41.1 W 9 13 1005.7 - 0.0 - - - - - - -
20/03:00pm 39.1 WNW 7 11 1006.3 - 0.0 - - - - - - -
20/02:30pm 38.9 W 8 12 1007.0 - 0.0 - - - - - - -
20/02:00pm 39.4 W 7 11 1007.4 - 0.0 - - - - - - -
20/01:30pm 38.0 W 4 8 1007.8 - 0.0 - - - - - - -
20/01:00pm 36.9 SW 3 6 1008.4 - 0.0 - - - - - - -
20/12:30pm 35.6 W 4 6 1008.9 - 0.0 - - - - - - -
20/12:00pm 33.9 WSW 5 7 1009.6 - 0.0 - - - - - - -
20/11:30am 33.5 W 4 6 1009.9 - 0.0 - - - - - - -
20/11:00am 32.8 NNW 4 9 1010.2 - 0.0 - - - - - - -
20/10:30am 32.6 NNW 5 6 1010.4 - 0.0 - - - - - - -
20/10:00am 32.0 SSE 3 5 1010.6 - 0.0 - - - - - - -
20/09:30am 31.5 ESE 6 8 1010.9 - 0.0 - - - - - - -
20/09:00am 31.1 E 7 11 1010.9 - 0.0 - - - - - - -
20/08:30am 31.1 E 10 13 1011.1 - 0.0 - - - - - - -
20/08:00am 30.4 ESE 1 6 1010.4 - 0.0 - - - - - - -
20/07:30am 29.7 SE 4 6 1010.3 - 0.0 - - - - - - -
20/07:00am 28.9 S 3 5 1009.9 - 0.0 - - - - - - -
20/06:30am 28.4 NNW 3 5 1009.7 - 0.0 - - - - - - -
20/06:00am 27.8 ESE 7 9 1009.7 - 0.0 - - - - - - -
20/05:30am 30.4 NE 1 6 1009.4 - 0.0 - - - - - - -
20/05:00am 30.7 N 3 6 1009.0 - 0.0 - - - - - - -
20/04:30am 31.4 W 6 7 1008.3 - 0.0 - - - - - - -
20/04:00am 31.5 WNW 7 9 1008.1 - 0.0 - - - - - - -
20/03:30am 31.4 WNW 9 11 1008.2 - 0.0 - - - - - - -
20/03:00am 31.1 W 5 7 1008.2 - 0.0 - - - - - - -

Other Formats:

Comma delimited format used in spreadsheet applications
http://www.bom.gov.au/fwo/IDD60701/IDD60701.95214.axf

JavaScript Object Notation format (JSON) in row-major order
http://www.bom.gov.au/fwo/IDD60701/IDD60701.95214.json